createdAt,value
2022-08-22T00:00:36.524Z,90.88
2022-08-22T00:02:54.175Z,69.82
2022-08-22T00:05:57.907Z,91.75
2022-08-22T00:08:32.839Z,91.37
2022-08-22T00:11:07.917Z,92.68
2022-08-22T00:13:44.569Z,92.42
2022-08-22T00:21:21.418Z,94.83
2022-08-22T00:23:53.322Z,94.09
2022-08-22T00:26:33.634Z,92.96
2022-08-22T00:29:06.185Z,92.59
2022-08-22T00:31:36.161Z,93.38
2022-08-22T00:34:06.109Z,93.82
2022-08-22T00:42:29.505Z,92.08
2022-08-22T00:45:21.386Z,91.13
2022-08-22T00:48:05.690Z,91.72
2022-08-22T00:51:02.103Z,92.31
2022-08-22T00:53:48.165Z,92.86
2022-08-22T00:56:41.930Z,92.24
2022-08-22T00:59:42.706Z,92.06
2022-08-22T01:02:27.400Z,91.82
2022-08-22T01:07:57.419Z,92.26
2022-08-22T01:10:40.337Z,93.09
2022-08-22T01:13:21.716Z,93.71
2022-08-22T01:15:52.640Z,97.71
2022-08-22T01:18:49.649Z,96.81
2022-08-22T01:21:50.669Z,95.06
2022-08-22T01:30:05.658Z,95.82
2022-08-22T01:33:09.188Z,95.95
2022-08-22T01:36:11.271Z,96.49
2022-08-22T01:39:22.609Z,95.13
2022-08-22T01:42:19.366Z,95.67
2022-08-22T01:45:02.991Z,95.88
2022-08-22T01:47:39.350Z,97.18
2022-08-22T01:57:48.883Z,98.88
2022-08-22T02:00:17.508Z,98.70
2022-08-22T02:02:58.278Z,99.29
2022-08-22T02:05:28.976Z,98.52
2022-08-22T02:08:01.687Z,97.56
2022-08-22T02:10:44.598Z,98.33
2022-08-22T02:20:30.158Z,96.88
2022-08-22T02:23:05.314Z,98.76
2022-08-22T02:25:52.604Z,99.04
2022-08-22T02:28:32.794Z,98.85
2022-08-22T02:31:06.279Z,98.90
2022-08-22T02:33:51.339Z,100.00
2022-08-22T02:36:28.318Z,100.00
2022-08-22T02:39:02.223Z,100.00
2022-08-22T02:44:19.866Z,100.00
2022-08-22T02:46:53.881Z,100.00
2022-08-22T02:49:27.367Z,100.00
2022-08-22T02:52:03.094Z,100.00
2022-08-22T02:54:36.324Z,100.00
2022-08-22T02:57:14.430Z,100.00
2022-08-22T03:02:36.774Z,100.00
2022-08-22T03:05:17.960Z,100.00
2022-08-22T03:07:53.072Z,100.00
2022-08-22T03:10:24.336Z,100.00
2022-08-22T03:13:06.097Z,100.00
2022-08-22T03:15:39.532Z,100.00
2022-08-22T03:18:21.974Z,100.00
2022-08-22T03:25:39.823Z,100.00
2022-08-22T03:28:10.198Z,100.00
2022-08-22T03:30:40.355Z,100.00
2022-08-22T03:33:16.683Z,100.00
2022-08-22T03:36:05.970Z,100.00
2022-08-22T03:38:53.553Z,100.00
2022-08-22T03:49:12.650Z,100.00
2022-08-22T03:51:54.309Z,100.00
2022-08-22T03:54:46.801Z,100.00
2022-08-22T03:57:30.008Z,100.00
2022-08-22T04:00:23.676Z,100.00
2022-08-22T04:03:28.287Z,100.00
2022-08-22T04:11:18.275Z,100.00
2022-08-22T04:14:05.663Z,100.00
2022-08-22T04:17:20.620Z,100.00
2022-08-22T04:20:05.805Z,100.00
2022-08-22T04:22:58.587Z,100.00
2022-08-22T04:25:30.448Z,100.00
2022-08-22T04:33:06.521Z,100.00
2022-08-22T04:35:36.854Z,100.00
2022-08-22T04:38:15.741Z,100.00
2022-08-22T04:40:47.805Z,100.00
2022-08-22T04:43:19.535Z,100.00
2022-08-22T04:45:53.265Z,100.00
2022-08-22T04:51:36.929Z,100.00
2022-08-22T04:54:23.494Z,100.00
2022-08-22T04:57:07.672Z,100.00
2022-08-22T04:59:36.639Z,100.00
2022-08-22T05:02:09.848Z,100.00
2022-08-22T05:04:42.447Z,100.00
2022-08-22T05:07:15.125Z,100.00
2022-08-22T05:09:48.403Z,100.00
2022-08-22T05:12:25.772Z,100.00
2022-08-22T05:22:35.949Z,100.00
2022-08-22T05:25:08.430Z,100.00
2022-08-22T05:27:40.780Z,100.00
2022-08-22T05:30:11.044Z,100.00
2022-08-22T05:32:48.606Z,100.00
2022-08-22T05:35:18.181Z,100.00
2022-08-22T05:40:29.299Z,100.00
2022-08-22T05:42:57.348Z,100.00
2022-08-22T05:45:27.435Z,100.00
2022-08-22T05:48:00.972Z,100.00
2022-08-22T05:50:35.615Z,100.00
2022-08-22T05:53:10.297Z,100.00
2022-08-22T05:55:45.653Z,100.00
2022-08-22T05:58:30.026Z,100.00
2022-08-22T06:03:43.963Z,100.00
2022-08-22T06:06:17.325Z,100.00
2022-08-22T06:08:54.877Z,100.00
2022-08-22T06:11:32.758Z,100.00
2022-08-22T06:14:11.371Z,100.00
2022-08-22T06:16:47.312Z,100.00
2022-08-22T06:19:19.216Z,100.00
2022-08-22T06:26:52.778Z,100.00
2022-08-22T06:29:28.803Z,100.00
2022-08-22T06:31:56.912Z,98.72
2022-08-22T06:34:27.317Z,97.28
2022-08-22T06:36:56.433Z,97.82
2022-08-22T06:39:25.586Z,97.30
2022-08-22T06:41:56.668Z,96.28
2022-08-22T06:49:27.849Z,95.58
2022-08-22T06:51:59.277Z,96.64
2022-08-22T06:54:34.149Z,94.71
2022-08-22T06:57:02.281Z,93.43
2022-08-22T06:59:31.685Z,93.62
2022-08-22T07:02:02.176Z,92.18
2022-08-22T07:04:29.874Z,91.86
2022-08-22T07:11:55.526Z,93.10
2022-08-22T07:14:28.781Z,93.24
2022-08-22T07:16:57.191Z,93.58
2022-08-22T07:19:25.713Z,93.11
2022-08-22T07:21:52.143Z,90.38
2022-08-22T07:24:21.391Z,92.55
2022-08-22T07:33:58.551Z,91.53
2022-08-22T07:36:32.024Z,90.10
2022-08-22T07:39:14.129Z,89.63
2022-08-22T07:41:55.197Z,89.05
2022-08-22T07:44:24.938Z,88.16
2022-08-22T07:46:56.039Z,90.29
2022-08-22T07:56:55.866Z,86.14
2022-08-22T07:59:23.225Z,85.94
2022-08-22T08:01:51.884Z,85.85
2022-08-22T08:04:21.383Z,87.24
2022-08-22T08:06:50.202Z,87.16
2022-08-22T08:09:18.355Z,85.13
2022-08-22T08:11:46.411Z,85.22
2022-08-22T08:19:17.016Z,83.46
2022-08-22T08:21:50.601Z,85.11
2022-08-22T08:24:20.145Z,85.12
2022-08-22T08:26:52.442Z,83.94
2022-08-22T08:29:18.428Z,82.56
2022-08-22T08:31:46.350Z,85.35
2022-08-22T08:34:19.407Z,83.89
2022-08-22T08:42:16.452Z,82.30
2022-08-22T08:45:03.297Z,79.95
2022-08-22T08:47:42.666Z,79.05
2022-08-22T08:50:20.298Z,76.39
2022-08-22T08:53:01.547Z,76.21
2022-08-22T08:55:44.610Z,73.73
2022-08-22T09:02:20.489Z,69.02
2022-08-22T09:05:33.374Z,66.86
2022-08-22T09:08:35.826Z,67.13
2022-08-22T09:11:28.538Z,64.96
2022-08-22T09:14:09.918Z,63.39
2022-08-22T09:16:51.271Z,60.94
2022-08-22T09:22:17.374Z,57.69
2022-08-22T09:25:06.165Z,49.65
2022-08-22T09:27:36.033Z,51.18
2022-08-22T09:30:08.000Z,46.94
2022-08-22T09:32:45.389Z,49.05
2022-08-22T09:35:22.619Z,50.69
2022-08-22T09:38:00.238Z,50.75
2022-08-22T09:45:43.848Z,45.10
2022-08-22T09:48:28.097Z,45.09
2022-08-22T09:51:28.811Z,46.33
2022-08-22T09:54:06.445Z,46.10
2022-08-22T09:56:37.409Z,46.97
2022-08-22T09:59:09.824Z,47.04
2022-08-22T10:04:44.616Z,48.02
2022-08-22T10:07:52.861Z,46.09
2022-08-22T10:10:50.662Z,46.61
2022-08-22T10:13:28.806Z,46.13
2022-08-22T10:16:00.837Z,47.13
2022-08-22T10:18:35.195Z,44.81
2022-08-22T10:26:23.002Z,41.51
2022-08-22T10:28:55.385Z,41.73
2022-08-22T10:31:31.469Z,41.91
2022-08-22T10:34:05.271Z,41.26
2022-08-22T10:36:43.664Z,40.66
2022-08-22T10:39:18.689Z,40.22
2022-08-22T10:49:22.393Z,41.80
2022-08-22T10:51:58.446Z,41.51
2022-08-22T10:54:45.868Z,42.02
2022-08-22T10:57:25.361Z,41.99
2022-08-22T11:00:00.437Z,41.02
2022-08-22T11:02:45.974Z,40.53
2022-08-22T11:08:27.715Z,40.70
2022-08-22T11:11:17.582Z,40.34
2022-08-22T11:14:11.468Z,38.65
2022-08-22T11:16:48.489Z,39.47
2022-08-22T11:19:43.017Z,38.88
2022-08-22T11:22:23.871Z,37.08
2022-08-22T11:30:07.519Z,32.89
2022-08-22T11:32:36.879Z,34.91
2022-08-22T11:35:09.284Z,33.99
2022-08-22T11:37:51.295Z,34.62
2022-08-22T11:40:32.061Z,33.95
2022-08-22T11:43:10.728Z,35.61
2022-08-22T11:50:13.760Z,34.02
2022-08-22T11:53:08.424Z,34.01
2022-08-22T11:55:38.976Z,34.44
2022-08-22T11:58:27.287Z,35.11
2022-08-22T12:01:00.500Z,37.23
2022-08-22T12:04:00.654Z,35.98
2022-08-22T12:12:55.347Z,39.86
2022-08-22T12:15:27.087Z,36.74
2022-08-22T12:18:27.331Z,37.41
2022-08-22T12:21:12.771Z,39.86
2022-08-22T12:24:20.815Z,37.27
2022-08-22T12:27:07.968Z,37.30
2022-08-22T12:36:03.814Z,31.55
2022-08-22T12:38:47.577Z,31.36
2022-08-22T12:41:48.331Z,30.89
2022-08-22T12:44:38.826Z,30.46
2022-08-22T12:47:31.975Z,30.40
2022-08-22T12:50:27.374Z,31.86
2022-08-22T12:58:56.220Z,33.60
2022-08-22T13:01:34.378Z,32.13
2022-08-22T13:04:04.310Z,32.06
2022-08-22T13:06:53.305Z,31.58
2022-08-22T13:09:28.514Z,31.94
2022-08-22T13:12:00.260Z,31.46
2022-08-22T13:19:45.543Z,30.01
2022-08-22T13:22:17.173Z,31.42
2022-08-22T13:24:51.831Z,34.07
2022-08-22T13:27:21.981Z,28.86
2022-08-22T13:29:52.446Z,29.26
2022-08-22T13:32:23.557Z,29.66
2022-08-22T13:34:55.743Z,28.41
2022-08-22T13:42:30.233Z,26.88
2022-08-22T13:45:02.215Z,26.82
2022-08-22T13:47:31.782Z,26.96
2022-08-22T13:50:06.805Z,25.38
2022-08-22T13:52:38.258Z,24.44
2022-08-22T13:55:12.394Z,24.81
2022-08-22T13:57:44.647Z,26.00
2022-08-22T14:05:45.550Z,28.77
2022-08-22T14:08:16.076Z,31.31
2022-08-22T14:10:55.056Z,30.06
2022-08-22T14:13:36.732Z,31.02
2022-08-22T14:16:04.510Z,30.56
2022-08-22T14:18:35.650Z,31.73
2022-08-22T14:21:17.955Z,31.71
2022-08-22T14:28:48.559Z,29.90
2022-08-22T14:31:23.137Z,30.58
2022-08-22T14:33:53.204Z,31.54
2022-08-22T14:36:22.598Z,32.16
2022-08-22T14:38:53.395Z,33.62
2022-08-22T14:41:28.556Z,31.71
2022-08-22T14:44:20.638Z,32.28
2022-08-22T14:51:50.879Z,31.51
2022-08-22T14:54:21.488Z,31.93
2022-08-22T14:56:50.936Z,32.44
2022-08-22T14:59:32.409Z,31.01
2022-08-22T15:02:01.570Z,32.25
2022-08-22T15:04:33.135Z,31.42
2022-08-22T15:07:00.138Z,32.71
2022-08-22T15:14:44.655Z,33.61
2022-08-22T15:17:44.473Z,33.61
2022-08-22T15:20:51.011Z,34.04
2022-08-22T15:23:20.609Z,33.79
2022-08-22T15:25:57.876Z,34.92
2022-08-22T15:28:24.670Z,33.01
2022-08-22T15:34:35.683Z,32.64
2022-08-22T15:37:22.201Z,32.54
2022-08-22T15:40:05.894Z,33.47
2022-08-22T15:42:41.050Z,35.22
2022-08-22T15:45:20.339Z,35.66
2022-08-22T15:47:52.272Z,34.61
2022-08-22T15:55:34.383Z,37.26
2022-08-22T15:58:05.485Z,32.86
2022-08-22T16:00:43.369Z,36.26
2022-08-22T16:03:22.617Z,33.08
2022-08-22T16:05:55.415Z,34.07
2022-08-22T16:08:32.690Z,37.34
2022-08-22T16:19:25.591Z,36.15
2022-08-22T16:22:11.192Z,36.11
2022-08-22T16:32:04.845Z,37.74
2022-08-22T16:34:41.348Z,37.16
2022-08-22T16:37:30.903Z,37.98
2022-08-22T17:42:21.163Z,42.45
2022-08-22T17:45:22.416Z,43.67
2022-08-22T17:50:47.364Z,44.14
2022-08-22T17:53:30.737Z,43.59
2022-08-22T17:56:17.883Z,44.26
2022-08-22T17:59:05.954Z,44.56
2022-08-22T18:01:50.145Z,45.37
2022-08-22T18:04:46.950Z,45.56
2022-08-22T18:07:41.156Z,45.88
2022-08-22T18:13:45.990Z,46.85
2022-08-22T18:16:27.677Z,46.83
2022-08-22T18:25:46.568Z,47.51
2022-08-22T18:28:45.094Z,48.36
2022-08-22T18:31:36.407Z,47.90
2022-08-22T18:34:13.965Z,48.42
2022-08-22T18:39:49.968Z,49.29
2022-08-22T18:42:28.801Z,49.88
2022-08-22T18:45:06.073Z,50.18
2022-08-22T18:47:44.745Z,50.61
2022-08-22T18:50:49.374Z,50.62
2022-08-22T18:53:45.956Z,50.92
2022-08-22T18:56:51.892Z,50.87
2022-08-22T18:59:54.775Z,51.73
2022-08-22T19:03:04.890Z,50.37
2022-08-22T19:06:09.144Z,51.27
2022-08-22T19:08:55.352Z,50.59
2022-08-22T19:11:41.332Z,51.16
2022-08-22T19:14:46.714Z,50.64
2022-08-22T19:17:37.607Z,51.61
2022-08-22T19:20:13.563Z,51.33
2022-08-22T19:22:43.798Z,51.72
2022-08-22T19:25:17.417Z,51.60
2022-08-22T19:27:46.741Z,51.33
2022-08-22T19:30:36.780Z,51.05
2022-08-22T19:33:08.652Z,51.38
2022-08-22T19:35:46.387Z,51.86
2022-08-22T19:38:53.927Z,51.36
2022-08-22T19:41:46.033Z,52.02
2022-08-22T19:44:35.883Z,51.53
2022-08-22T19:47:10.530Z,51.35
2022-08-22T19:49:43.969Z,52.75
2022-08-22T19:52:25.525Z,51.84
2022-08-22T19:55:03.754Z,53.04
2022-08-22T19:57:41.973Z,53.34
2022-08-22T20:00:13.520Z,53.44
2022-08-22T20:02:55.463Z,54.35
2022-08-22T20:05:38.267Z,53.49
2022-08-22T20:08:22.500Z,53.93
2022-08-22T20:11:04.402Z,54.59
2022-08-22T20:13:34.203Z,54.30
2022-08-22T20:16:15.894Z,54.32
2022-08-22T20:19:12.804Z,54.19
2022-08-22T20:21:49.300Z,54.58
2022-08-22T20:24:22.643Z,54.78
2022-08-22T20:27:12.607Z,55.58
2022-08-22T20:29:47.084Z,55.10
2022-08-22T20:32:17.614Z,56.45
2022-08-22T20:34:45.511Z,55.63
2022-08-22T20:37:45.477Z,55.30
2022-08-22T20:40:55.038Z,55.67
2022-08-22T20:43:10.763Z,56.44
2022-08-22T20:45:48.142Z,56.21
2022-08-22T20:48:15.915Z,57.66
2022-08-22T20:50:43.183Z,57.57
2022-08-22T20:53:16.620Z,57.95
2022-08-22T20:55:52.379Z,57.79
2022-08-22T20:58:22.770Z,58.32
2022-08-22T21:00:52.788Z,58.25
2022-08-22T21:03:32.643Z,57.83
2022-08-22T21:06:09.814Z,58.34
2022-08-22T21:08:38.839Z,59.20
2022-08-22T21:11:07.424Z,58.39
2022-08-22T21:13:36.166Z,59.39
2022-08-22T21:16:13.581Z,58.82
2022-08-22T21:18:42.922Z,59.39
2022-08-22T21:21:18.673Z,60.05
2022-08-22T21:23:49.202Z,59.58
2022-08-22T21:26:24.677Z,59.48
2022-08-22T21:28:58.160Z,59.95
2022-08-22T21:31:28.614Z,59.72
2022-08-22T21:33:56.166Z,59.92
2022-08-22T21:36:25.544Z,60.11
2022-08-22T21:38:57.500Z,60.47
2022-08-22T21:41:34.625Z,60.61
2022-08-22T21:44:27.741Z,61.43
2022-08-22T21:46:55.727Z,61.72
2022-08-22T21:49:24.506Z,62.26
2022-08-22T21:51:52.396Z,63.40
2022-08-22T21:54:26.515Z,63.10
2022-08-22T21:56:56.026Z,66.38
2022-08-22T21:59:26.805Z,64.47
2022-08-22T22:02:29.241Z,64.05
2022-08-22T22:04:59.761Z,66.77
2022-08-22T22:07:27.647Z,65.71
2022-08-22T22:10:02.056Z,66.80
2022-08-22T22:12:29.665Z,64.70
2022-08-22T22:15:00.258Z,66.49
2022-08-22T22:17:27.698Z,67.20
2022-08-22T22:19:57.712Z,68.13
2022-08-22T22:22:24.964Z,68.66
2022-08-22T22:24:52.310Z,68.74
2022-08-22T22:27:21.091Z,67.86
2022-08-22T22:29:48.110Z,69.21
2022-08-22T22:32:20.033Z,68.95
2022-08-22T22:34:53.614Z,69.04
2022-08-22T22:37:24.112Z,71.57
2022-08-22T22:39:51.431Z,72.02
2022-08-22T22:42:20.912Z,72.84
2022-08-22T22:48:43.273Z,74.27
2022-08-22T22:51:13.773Z,74.01
2022-08-22T22:53:43.059Z,74.37
2022-08-22T23:00:18.529Z,75.54
2022-08-22T23:02:45.743Z,77.31
2022-08-22T23:05:13.054Z,76.68
2022-08-22T23:11:33.911Z,78.86
2022-08-22T23:14:03.280Z,77.79
2022-08-22T23:21:12.918Z,78.03
2022-08-22T23:23:41.635Z,80.46
2022-08-22T23:26:09.009Z,82.72
2022-08-22T23:32:29.807Z,81.82
2022-08-22T23:34:57.064Z,82.75
2022-08-22T23:44:48.391Z,82.91
2022-08-22T23:47:18.628Z,83.93
2022-08-22T23:53:40.642Z,86.05
2022-08-22T23:56:19.240Z,85.41
